Orion II — 9HUT9 — position and weather

sailwx.info

Track history (hours):
 
Tides and Currents Weather Stations Pressure Air Temp Water Temp Dewpoint Dewpoint Depression Visibility Wind Speed Wind Dir Waves Ship Positions

Orion II

Last reported at 2017-Jul-20 23:53 UTC. Time now 2017-Jul-22 18:31 UTC.
Position N 55°44' W 006°46'.

Length 88 m; draft 4 m.

MMSI: 249556000.

Date/timePositionNaut miles runAvg speedWind from/ knotsBaromVisibWave heightAir tempDewpointWater temp
2017-Jul-20 23:53N 55°44' W 006°46'513.7
2017-Jul-20 23:31N 55°40' W 006°41'816.1
2017-Jul-20 23:00N 55°34' W 006°31'816.4
2017-Jul-20 22:30N 55°29' W 006°20'815.4
2017-Jul-20 22:01N 55°26' W 006°08'714.4
2017-Jul-20 21:30N 55°21' W 005°58'714.7
2017-Jul-20 21:01N 55°14' W 005°52'2513.7
2017-Jul-20 19:13N 54°51' W 005°39'313.0
2017-Jul-20 19:00N 54°48' W 005°39'713.2
2017-Jul-20 18:30N 54°42' W 005°43'612.2
2017-Jul-20 17:59N 54°39' W 005°52'3 5.1
2017-Jul-20 17:29N 54°37' W 005°55'0 0.0
2017-Jul-20 16:43N 54°37' W 005°55'0 0.0
2017-Jul-20 16:23N 54°37' W 005°55'0 0.0
2017-Jul-20 15:59N 54°37' W 005°55'0 0.0
2017-Jul-20 15:29N 54°37' W 005°55'0 0.0
2017-Jul-20 14:55N 54°37' W 005°55'0 0.0
2017-Jul-20 13:50N 54°37' W 005°55'0 0.0
2017-Jul-20 13:20N 54°37' W 005°55'0 0.0
2017-Jul-20 07:02N 54°37' W 005°55'0 1.9
2017-Jul-20 07:01N 54°37' W 005°55'2 4.1
2017-Jul-20 06:26N 54°39' W 005°52'512.5
2017-Jul-20 06:00N 54°42' W 005°45'4 8.8
2017-Jul-20 05:30N 54°43' W 005°37'611.5
2017-Jul-20 05:01N 54°42' W 005°28'612.3
2017-Jul-20 04:30N 54°36' W 005°24'612.6
2017-Jul-20 04:01N 54°30' W 005°21'713.0
2017-Jul-20 03:29N 54°23' W 005°18'613.5
2017-Jul-20 03:00N 54°17' W 005°23'813.9
2017-Jul-20 02:24N 54°09' W 005°28'713.7
2017-Jul-20 01:55N 54°03' W 005°31'49 8.2
2017-Jul-19 19:54N 53°21' W 006°14'0 0.0
2017-Jul-19 09:26N 53°21' W 006°14'0 0.0
2017-Jul-19 08:55N 53°21' W 006°14'0 0.0
2017-Jul-19 05:29N 53°21' W 006°14'1 1.8
2017-Jul-19 05:00N 53°21' W 006°13'510.6
2017-Jul-19 04:30N 53°20' W 006°04'4 8.8
2017-Jul-19 04:00N 53°21' W 005°56'3 6.5
2017-Jul-19 03:30N 53°22' W 005°51'44 2.0
2017-Jul-18 05:39N 53°20' W 004°37'1 7.7
2017-Jul-18 05:29N 53°20' W 004°39'2 4.7
2017-Jul-18 05:00N 53°19' W 004°42'4 8.0
2017-Jul-18 04:30N 53°16' W 004°45'5 9.9
2017-Jul-18 04:00N 53°11' W 004°47'710.4
2017-Jul-18 03:17N 53°04' W 004°51'510.9
2017-Jul-18 02:50N 52°59' W 004°53'104 3.7
2017-Jul-16 22:45N 51°22' W 005°54'514.4
2017-Jul-16 22:26N 51°18' W 005°55'714.3
2017-Jul-16 21:59N 51°11' W 005°56'714.3
2017-Jul-16 21:31N 51°04' W 005°58'714.4
2017-Jul-16 21:00N 50°57' W 006°01'68 4.2
2017-Jul-16 04:50N 49°55' W 005°21'615.3
2017-Jul-16 04:26N 49°55' W 005°11'715.2
2017-Jul-16 03:59N 49°56' W 005°01'814.9
2017-Jul-16 03:27N 49°57' W 004°49'714.7
2017-Jul-16 02:57N 49°59' W 004°38'714.5
2017-Jul-16 02:28N 50°01' W 004°27'614.4
2017-Jul-16 02:00N 50°02' W 004°17'714.3
2017-Jul-16 01:30N 50°04' W 004°06'714.0
2017-Jul-16 01:01N 50°06' W 003°55'713.7
2017-Jul-16 00:30N 50°07' W 003°45'612.9
2017-Jul-16 00:00N 50°09' W 003°35'613.0
2017-Jul-15 23:30N 50°11' W 003°26'613.0
2017-Jul-15 23:00N 50°13' W 003°16'613.0
2017-Jul-15 22:30N 50°16' W 003°07'713.0
2017-Jul-15 22:00N 50°18' W 002°58'713.1
2017-Jul-15 21:30N 50°21' W 002°48'1113.7
2017-Jul-15 20:43N 50°24' W 002°32'2514.7
2017-Jul-15 19:03N 50°35' W 001°57'116.0
2017-Jul-15 19:01N 50°35' W 001°56'510.6
2017-Jul-15 18:30N 50°41' W 001°57'3 5.1
2017-Jul-15 17:59N 50°43' W 001°59'0 0.0
2017-Jul-15 17:29N 50°43' W 001°59'0 0.0
2017-Jul-15 16:56N 50°43' W 001°59'0 0.0
2017-Jul-15 16:26N 50°43' W 001°59'0 0.0
2017-Jul-15 15:59N 50°43' W 001°59'0 0.0
2017-Jul-15 15:20N 50°43' W 001°59'0 0.0
2017-Jul-15 14:56N 50°43' W 001°59'0 0.0
2017-Jul-15 13:56N 50°43' W 001°59'0 0.0
2017-Jul-15 13:20N 50°43' W 001°59'0 0.0
2017-Jul-15 12:59N 50°43' W 001°59'0 0.0
2017-Jul-15 12:29N 50°43' W 001°59'0 0.0
2017-Jul-15 11:59N 50°43' W 001°59'0 0.0
2017-Jul-15 11:26N 50°43' W 001°59'0 0.0
2017-Jul-15 10:56N 50°43' W 001°59'0 0.0
2017-Jul-15 10:26N 50°43' W 001°59'0 0.0
2017-Jul-15 09:59N 50°43' W 001°59'0 0.0
2017-Jul-15 09:26N 50°43' W 001°59'0 0.0
2017-Jul-15 08:59N 50°43' W 001°59'0 0.0
2017-Jul-15 08:29N 50°43' W 001°59'0 0.0
2017-Jul-15 07:59N 50°43' W 001°59'0 0.0
2017-Jul-15 07:29N 50°43' W 001°59'0 0.0
2017-Jul-15 06:56N 50°43' W 001°59'0 0.0
2017-Jul-15 06:29N 50°43' W 001°59'0 0.0
2017-Jul-15 05:59N 50°43' W 001°59'0 0.2
2017-Jul-15 05:31N 50°43' W 001°59'4 7.4
2017-Jul-15 05:00N 50°40' W 001°56'3 5.9
2017-Jul-15 04:30N 50°37' W 001°54'40 9.8
2017-Jul-15 00:23N 50°19' W 002°50'615.6
2017-Jul-15 00:00N 50°17' W 002°59'815.5
2017-Jul-14 23:30N 50°14' W 003°10'815.2
2017-Jul-14 23:00N 50°11' W 003°21'815.2
2017-Jul-14 22:30N 50°08' W 003°33'815.4
2017-Jul-14 22:00N 50°06' W 003°44'815.2
2017-Jul-14 21:29N 50°04' W 003°56'1915.2
2017-Jul-14 20:16N 50°01' W 004°24'615.1
2017-Jul-14 19:51N 49°60' W 004°34'  
2017-Jul-11 21:52N 53°20' W 006°06'5 0.9
2017-Jul-11 16:22N 53°21' W 006°14'0 0.0
2017-Jul-11 15:52N 53°21' W 006°14'0 0.0
2017-Jul-11 15:13N 53°21' W 006°14'0 0.0
2017-Jul-11 05:22N 53°21' W 006°14'1 3.0
2017-Jul-11 04:59N 53°21' W 006°12'510.2
2017-Jul-11 04:29N 53°20' W 006°04'  
Track history (hours):
 
Tides and Currents Weather Stations Pressure Air Temp Water Temp Dewpoint Dewpoint Depression Visibility Wind Speed Wind Dir Waves Ship Positions

Orion II

Last reported at 2017-Jul-20 23:53 UTC. Time now 2017-Jul-22 18:31 UTC.
Position N 55°44' W 006°46'.

Length 88 m; draft 4 m.

MMSI: 249556000.

Date/timePositionNaut miles runAvg speedWind from/ knotsBaromVisibWave heightAir tempDewpointWater temp
2017-Jul-20 23:53N 55°44' W 006°46'513.7
2017-Jul-20 23:31N 55°40' W 006°41'816.1
2017-Jul-20 23:00N 55°34' W 006°31'816.4
2017-Jul-20 22:30N 55°29' W 006°20'815.4
2017-Jul-20 22:01N 55°26' W 006°08'714.4
2017-Jul-20 21:30N 55°21' W 005°58'714.7
2017-Jul-20 21:01N 55°14' W 005°52'2513.7
2017-Jul-20 19:13N 54°51' W 005°39'313.0
2017-Jul-20 19:00N 54°48' W 005°39'713.2
2017-Jul-20 18:30N 54°42' W 005°43'612.2
2017-Jul-20 17:59N 54°39' W 005°52'3 5.1
2017-Jul-20 17:29N 54°37' W 005°55'0 0.0
2017-Jul-20 16:43N 54°37' W 005°55'0 0.0
2017-Jul-20 16:23N 54°37' W 005°55'0 0.0
2017-Jul-20 15:59N 54°37' W 005°55'0 0.0
2017-Jul-20 15:29N 54°37' W 005°55'0 0.0
2017-Jul-20 14:55N 54°37' W 005°55'0 0.0
2017-Jul-20 13:50N 54°37' W 005°55'0 0.0
2017-Jul-20 13:20N 54°37' W 005°55'0 0.0
2017-Jul-20 07:02N 54°37' W 005°55'0 1.9
2017-Jul-20 07:01N 54°37' W 005°55'2 4.1
2017-Jul-20 06:26N 54°39' W 005°52'512.5
2017-Jul-20 06:00N 54°42' W 005°45'4 8.8
2017-Jul-20 05:30N 54°43' W 005°37'611.5
2017-Jul-20 05:01N 54°42' W 005°28'612.3
2017-Jul-20 04:30N 54°36' W 005°24'612.6
2017-Jul-20 04:01N 54°30' W 005°21'713.0
2017-Jul-20 03:29N 54°23' W 005°18'613.5
2017-Jul-20 03:00N 54°17' W 005°23'813.9
2017-Jul-20 02:24N 54°09' W 005°28'713.7
2017-Jul-20 01:55N 54°03' W 005°31'49 8.2
2017-Jul-19 19:54N 53°21' W 006°14'0 0.0
2017-Jul-19 09:26N 53°21' W 006°14'0 0.0
2017-Jul-19 08:55N 53°21' W 006°14'0 0.0
2017-Jul-19 05:29N 53°21' W 006°14'1 1.8
2017-Jul-19 05:00N 53°21' W 006°13'510.6
2017-Jul-19 04:30N 53°20' W 006°04'4 8.8
2017-Jul-19 04:00N 53°21' W 005°56'3 6.5
2017-Jul-19 03:30N 53°22' W 005°51'44 2.0
2017-Jul-18 05:39N 53°20' W 004°37'1 7.7
2017-Jul-18 05:29N 53°20' W 004°39'2 4.7
2017-Jul-18 05:00N 53°19' W 004°42'4 8.0
2017-Jul-18 04:30N 53°16' W 004°45'5 9.9
2017-Jul-18 04:00N 53°11' W 004°47'710.4
2017-Jul-18 03:17N 53°04' W 004°51'510.9
2017-Jul-18 02:50N 52°59' W 004°53'104 3.7
2017-Jul-16 22:45N 51°22' W 005°54'514.4
2017-Jul-16 22:26N 51°18' W 005°55'714.3
2017-Jul-16 21:59N 51°11' W 005°56'714.3
2017-Jul-16 21:31N 51°04' W 005°58'714.4
2017-Jul-16 21:00N 50°57' W 006°01'68 4.2
2017-Jul-16 04:50N 49°55' W 005°21'615.3
2017-Jul-16 04:26N 49°55' W 005°11'715.2
2017-Jul-16 03:59N 49°56' W 005°01'814.9
2017-Jul-16 03:27N 49°57' W 004°49'714.7
2017-Jul-16 02:57N 49°59' W 004°38'714.5
2017-Jul-16 02:28N 50°01' W 004°27'614.4
2017-Jul-16 02:00N 50°02' W 004°17'714.3
2017-Jul-16 01:30N 50°04' W 004°06'714.0
2017-Jul-16 01:01N 50°06' W 003°55'713.7
2017-Jul-16 00:30N 50°07' W 003°45'612.9
2017-Jul-16 00:00N 50°09' W 003°35'613.0
2017-Jul-15 23:30N 50°11' W 003°26'613.0
2017-Jul-15 23:00N 50°13' W 003°16'613.0
2017-Jul-15 22:30N 50°16' W 003°07'713.0
2017-Jul-15 22:00N 50°18' W 002°58'713.1
2017-Jul-15 21:30N 50°21' W 002°48'1113.7
2017-Jul-15 20:43N 50°24' W 002°32'2514.7
2017-Jul-15 19:03N 50°35' W 001°57'116.0
2017-Jul-15 19:01N 50°35' W 001°56'510.6
2017-Jul-15 18:30N 50°41' W 001°57'3 5.1
2017-Jul-15 17:59N 50°43' W 001°59'0 0.0
2017-Jul-15 17:29N 50°43' W 001°59'0 0.0
2017-Jul-15 16:56N 50°43' W 001°59'0 0.0
2017-Jul-15 16:26N 50°43' W 001°59'0 0.0
2017-Jul-15 15:59N 50°43' W 001°59'0 0.0
2017-Jul-15 15:20N 50°43' W 001°59'0 0.0
2017-Jul-15 14:56N 50°43' W 001°59'0 0.0
2017-Jul-15 13:56N 50°43' W 001°59'0 0.0
2017-Jul-15 13:20N 50°43' W 001°59'0 0.0
2017-Jul-15 12:59N 50°43' W 001°59'0 0.0
2017-Jul-15 12:29N 50°43' W 001°59'0 0.0
2017-Jul-15 11:59N 50°43' W 001°59'0 0.0
2017-Jul-15 11:26N 50°43' W 001°59'0 0.0
2017-Jul-15 10:56N 50°43' W 001°59'0 0.0
2017-Jul-15 10:26N 50°43' W 001°59'0 0.0
2017-Jul-15 09:59N 50°43' W 001°59'0 0.0
2017-Jul-15 09:26N 50°43' W 001°59'0 0.0
2017-Jul-15 08:59N 50°43' W 001°59'0 0.0
2017-Jul-15 08:29N 50°43' W 001°59'0 0.0
2017-Jul-15 07:59N 50°43' W 001°59'0 0.0
2017-Jul-15 07:29N 50°43' W 001°59'0 0.0
2017-Jul-15 06:56N 50°43' W 001°59'0 0.0
2017-Jul-15 06:29N 50°43' W 001°59'0 0.0
2017-Jul-15 05:59N 50°43' W 001°59'0 0.2
2017-Jul-15 05:31N 50°43' W 001°59'4 7.4
2017-Jul-15 05:00N 50°40' W 001°56'3 5.9
2017-Jul-15 04:30N 50°37' W 001°54'40 9.8
2017-Jul-15 00:23N 50°19' W 002°50'615.6
2017-Jul-15 00:00N 50°17' W 002°59'815.5
2017-Jul-14 23:30N 50°14' W 003°10'815.2
2017-Jul-14 23:00N 50°11' W 003°21'815.2
2017-Jul-14 22:30N 50°08' W 003°33'815.4
2017-Jul-14 22:00N 50°06' W 003°44'815.2
2017-Jul-14 21:29N 50°04' W 003°56'1915.2
2017-Jul-14 20:16N 50°01' W 004°24'615.1
2017-Jul-14 19:51N 49°60' W 004°34'  
2017-Jul-11 21:52N 53°20' W 006°06'5 0.9
2017-Jul-11 16:22N 53°21' W 006°14'0 0.0
2017-Jul-11 15:52N 53°21' W 006°14'0 0.0
2017-Jul-11 15:13N 53°21' W 006°14'0 0.0
2017-Jul-11 05:22N 53°21' W 006°14'1 3.0
2017-Jul-11 04:59N 53°21' W 006°12'510.2
2017-Jul-11 04:29N 53°20' W 006°04'  

Dump ship's entire track history